Новый Торъял

Карта отелей и гостиниц, располагающихся рядом с аэропортом Новый Торъял :

Новый Торъял Марий Эл 56° 58' 41.2788" N, 48° 45' 4.68" E
Код аэродрома ИКАО
ZC7X
Код аэродрома RU
ЗЦ7Ь
Координаты
N56.97813° E048.75130°
Превышение над уровнем моря
170
Основная полоса
35/17
Курс магнитный
353,3/173,3
Длина основной ВПП
419
Ширина основной ВПП
18
Покрытие основной ВПП
Твёрдое (асфальт)
Освещение ВПП
Нет
Тип: 
Аэродром
Класс аэродрома: 
Принадлежность: 
ГА
Статус: 
Недействующий
Сайт: 
E-mail аэродрома: 
Страна: 
Россия
Регион: 
Марий Эл
Город: 
Дополнительная информация: 
Площадка АХР.

Найти трансфер

С помощью этой формы Вы можете найти трансфер из аэропорта Новый Торъял в город, аэропорт или вокзал:

Карта места

Javascript is required to view this map.

Погода в аэропортах:

Авиационная погода в Екатеринбурге

Регион: 
Погода METAR: 
USSS 170530Z 17004MPS 9999 -SN SCT042 M09/M11 Q0998 R26R/390032 NOSIG RMK QFE728/0971
Время наблюдения
2021-01-17T05:30:00Z
Температура C
-9.0
Точка росы
-11.0
Направление ветра
170
Скорость ветра (узлы)
8
Метео видимость
6.21
Явления погоды
-SN
Условия полета
VFR
Аэропорт подробнее: 

Авиационная погода в Якутске

Регион: 
Погода METAR: 
UEEE 170530Z 00000MPS 0350 0300SW R23L/0450N FG VV004 M41/M46 Q1028 R23L/450150 NOSIG RMK QBB120 QFE762
Время наблюдения
2021-01-17T05:30:00Z
Температура C
-41.0
Точка росы
-46.0
Направление ветра
0
Скорость ветра (узлы)
0
Метео видимость
0.22
Явления погоды
FG
Условия полета
LIFR
Аэропорт подробнее: 

Авиационная погода в Угольном

Регион: 
Погода METAR: 
UHMA 170600Z 32003MPS 9999 -SN BKN044 M22/M25 Q1018 R01/////// NOSIG RMK TDZ R01/32003G04MPS END R01/28002G04MPS QFE759/1013
Время наблюдения
2021-01-17T06:00:00Z
Температура C
-22.0
Точка росы
-25.0
Направление ветра
320
Скорость ветра (узлы)
6
Метео видимость
6.21
Явления погоды
-SN
Условия полета
VFR
Аэропорт подробнее: 

Авиационная погода в Симферополе

Погода METAR: 
URFF 170530Z 03009MPS 1700 R01/1800U SN DRSN BKN006 OVC023 M05/M05 Q1007 R01/421595 NOSIG
Время наблюдения
2021-01-17T05:30:00Z
Температура C
-5.0
Точка росы
-5.0
Направление ветра
30
Скорость ветра (узлы)
17
Метео видимость
1.06
Явления погоды
DRSN SN
Условия полета
IFR
Аэропорт подробнее: